Vallejo, CA

7:47 AM PDT on September 18, 2014 (GMT -0700)
Federal Terrace, VSFCD | Change Station
CLOSE
Current Station
Personal Weather Station
Location: Vallejo, CA
Elevation: 34 ft
Nearby Weather Stations

Elev 34 ft 38.13 °N, 122.27 °W | Updated 2 minutes ago

Overcast
Overcast
66.8 °F
Feels Like 66.8 °F
N
4.0
Wind Variable Wind from WSW
Gusts 10.0 mph

Today
High -- | Low -- °F
--% Chance of Precip.
Yesterday
High -- | Low -- °F
Precip. -- in
6:53 AM 7:12 PM
Waning Crescent, 26% visible
Pressure 29.82 in
Visibility 10.0 miles
Clouds Few 900 ft
Mostly Cloudy 1300 ft
Overcast 3600 ft
Dew Point 64 °F
Humidity 91%
Rainfall 0.00 in
Snow Depth 1 in , 0 in , 3 in
UV 0.0 out of 12
Pollen 5.10 out of 12
Air Quality Not available.
Flu Activity Not available.
SPECI KAPC 181420Z AUTO 00000KT 10SM FEW009 BKN013 OVC036 19/18 A2982 RMK AO2 T01890183

More Conditions Fewer Conditions

Pressure 29.82 in
Visibility 10.0 miles
Clouds Few 900 ft
Mostly Cloudy 1300 ft
Overcast 3600 ft
Dew Point 64 °F
Humidity 91%
Rainfall 0.00 in
Snow Depth 1 in , 0 in , 3 in
UV 0.0 out of 12
Pollen 5.10 out of 12
Air Quality Not available.
Flu Activity Not available.
SPECI KAPC 181420Z AUTO 00000KT 10SM FEW009 BKN013 OVC036 19/18 A2982 RMK AO2 T01890183

More Conditions Fewer Conditions

10-Day Weather Forecast

Almanac

Astronomy

Sep. 18, 2014 Rise Set
Actual Time 6:53 AM PDT 7:12 PM PDT
Civil Twilight 6:26 AM PDT 7:38 PM PDT
Nautical Twilight 5:56 AM PDT 8:09 PM PDT
Astronomical Twilight 5:24 AM PDT 8:40 PM PDT
Moon 1:53 AM PDT 4:03 PM PDT
Length of Visible Light 13h 11m
Length of Day
12h 18m
Tomorrow will be 2m 25s shorter.
Waning Crescent, 26% of the Moon is Illuminated
Today
Waning Crescent
Sep 24
New
Oct 1
First Quarter
Oct 8
Full
Oct 15
Last Quarter

Today's Extremes

State Highs State Lows

Community

WunderPhotos

Upload Photos

1,754,357 photos uploaded!

Nearby

Air Quality

  Air Quality AQ Index Pollutant
Yesterday Good
OZONE
Thursday Good
OZONE
Friday Good
OZONE
Saturday Good
OZONE
Sunday Good
OZONE
Monday Good
OZONE

Snow Depth

Station Depth Elevation
Leavitt Meadows 1 in 7200 ft
Rubicon #2 0 in 7500 ft
Heavenly Valley 0 in 8850 ft
CSS Lab 3 in 6900 ft
Spratt Creek 1 in 6200 ft

Earthquake Activity

City Distance Mag. Time & Date
The Geysers, California 48 miles 2.5 11:29 PM PDT
2014-09-17
Cobb, California 50 miles 2.7 1:23 PM PDT
2014-09-16
Minimum magnitude displayed is 2.5.

Coastal Water Temperatures

Place Temperature
San Francisco, CA 66.0 °F
Richmond, CA 68.0 °F
Port Chicago, CA 69.1 °F

Nearby Weather Stations